• Join FlightAware (Why Join?)
  • Login
  • US Flag 
07:11PM EST


 

Airport Tracker/Info


-or-


 

Live Flight TrackerFlight Track Log ✈ UAL395 ✈ 28-Jun-2013 ✈ KORD - KSAN

Flight Track Log - Related Links

Times and Time Zones

All times are in EDT time to prevent confusion due to time zone crossing. See the UAL395 flight status page for this flight to view local times or setup timezone preferences in your user account.

Time Position Orientation Groundspeed Altitude Reporting Facility
EDT Latitude Longitude Course Direction KTS MPH feet Rate Location/Type
07:58PM 41.9667 -87.9500 270° West 173 199 1,900  Level Chicago TRACON
07:59PM 41.9667 -88.0167 270° West 216 249 3,300 1,740 Climbing Chicago TRACON
08:00PM 41.9500 -88.1000 255° West 265 305 5,300 2,460 Climbing Chicago TRACON
08:01PM 41.9483 -88.1856 269° West 272 313 7,600 2,640 Climbing Chicago Center
08:02PM 41.9414 -88.2883 265° West 278 320 10,300 2,220 Climbing Chicago Center
08:03PM 41.9350 -88.3981 266° West 296 341 12,200 2,040 Climbing Chicago Center
08:04PM 41.9269 -88.5192 265° West 323 372 14,500 2,040 Climbing Chicago Center
08:05PM 41.9186 -88.6450 265° West 337 388 16,500 2,100 Climbing Chicago Center
08:06PM 41.9100 -88.7992 266° West 345 397 18,900 1,980 Climbing Chicago Center
08:07PM 41.9011 -88.9328 265° West 358 412 20,600 1,620 Climbing Chicago Center
08:08PM 41.8936 -89.0678 266° West 364 419 22,300 1,500 Climbing Chicago Center
08:09PM 41.8856 -89.2064 266° West 375 432 23,700 1,380 Climbing Chicago Center
08:10PM 41.8781 -89.3467 266° West 379 436 25,200 960 Climbing Chicago Center
08:11PM 41.8539 -89.5214 260° West 401 461 25,800 480 Climbing Chicago Center
08:12PM 41.8286 -89.6747 258° West 419 482 26,300 660 Climbing Chicago Center
08:13PM 41.8047 -89.8353 259° West 439 505 27,200 780 Climbing Chicago Center
08:14PM 41.7803 -90.0061 259° West 449 517 28,000 360 Climbing Chicago Center
08:15PM 41.7553 -90.1678 258° West 447 514 28,000  Level Chicago Center
08:16PM 41.7292 -90.3219 257° West 432 497 28,000  Level Chicago Center
08:17PM 41.6650 -90.4489 236° Southwest 418 481 28,100 900 Climbing Chicago Center
08:18PM 41.5978 -90.5686 233° Southwest 408 470 29,900 1,560 Climbing Chicago Center
08:19PM 41.5431 -90.7019 241° Southwest 370 426 31,400 1,020 Climbing Chicago Center
08:20PM 41.5331 -90.8258 264° West 343 395 32,100 540 Climbing Chicago Center
08:21PM 41.5222 -90.9664 264° West 347 399 32,600 480 Climbing Chicago Center
08:22PM 41.5119 -91.1003 264° West 361 415 33,200 480 Climbing Chicago Center
08:23PM 41.5003 -91.2358 263° West 366 421 33,600 420 Climbing Chicago Center
08:24PM 41.4892 -91.3856 264° West 372 428 34,100 540 Climbing Chicago Center
08:26PM 41.4778 -91.5244 264° West 377 434 34,800 540 Climbing Chicago Center
08:27PM 41.4661 -91.6644 264° West 380 437 35,300 540 Climbing Chicago Center
08:28PM 41.4514 -91.8300 263° West 378 435 36,000 300 Climbing Chicago Center
08:29PM 41.4397 -91.9703 264° West 382 440 36,000  Level Chicago Center
08:30PM 41.4275 -92.1164 264° West 396 456 36,000  Level Chicago Center
08:31PM 41.4136 -92.2656 263° West 405 466 36,000  Level Chicago Center
08:32PM 41.4006 -92.4147 263° West 409 471 36,000  Level Chicago Center
08:33PM 41.3844 -92.5911 263° West 405 466 36,000  Level Chicago Center
08:34PM 41.3706 -92.7394 263° West 408 470 36,000  Level Chicago Center
08:35PM 41.3569 -92.8839 263° West 402 463 36,000  Level Chicago Center
08:36PM 41.3428 -93.0328 263° West 409 471 36,000  Level Chicago Center
08:37PM 41.3278 -93.1781 262° West 404 465 36,000  Level Chicago Center
08:38PM 41.3106 -93.3578 263° West 410 472 36,000  Level Chicago Center
08:39PM 41.2958 -93.5067 263° West 411 473 36,000  Level Chicago Center
08:40PM 41.2800 -93.6561 262° West 412 474 36,000  Level Chicago Center
08:41PM 41.2658 -93.8031 263° West 409 471 36,000  Level Chicago Center
08:42PM 41.2500 -93.9792 263° West 410 472 36,000  Level Minneapolis Center
08:43PM 41.2342 -94.1272 262° West 409 471 36,000  Level Minneapolis Center
08:44PM 41.2172 -94.2767 261° West 412 474 36,000  Level Minneapolis Center
08:45PM 41.1994 -94.4264 261° West 410 472 36,000  Level Minneapolis Center
08:46PM 41.1847 -94.5778 263° West 414 476 36,000  Level Minneapolis Center
08:47PM 41.1647 -94.7606 262° West 418 481 36,000  Level Minneapolis Center
08:48PM 41.1467 -94.9131 261° West 418 481 36,000  Level Minneapolis Center
08:49PM 41.1286 -95.0656 261° West 419 482 36,000  Level Minneapolis Center
08:50PM 41.1114 -95.2172 261° West 417 480 36,000  Level Minneapolis Center
08:51PM 41.0931 -95.3694 261° West 417 480 36,000  Level Minneapolis Center
08:52PM 41.0744 -95.5239 261° West 421 484 36,000  Level Minneapolis Center
08:53PM 41.0550 -95.6761 260° West 418 481 36,000  Level Minneapolis Center
08:54PM 41.0319 -95.8597 261° West 418 481 36,000  Level Minneapolis Center
08:56PM 41.0134 -96.0188 260° West  Level FlightAware Approximate
08:56PM 41.0128 -96.0150 260° West 422 486 36,000  Level Minneapolis Center
08:57PM 40.9953 -96.1700 262° West 422 486 36,000  Level Minneapolis Center
08:58PM 40.9764 -96.3231 261° West 421 484 36,000  Level Minneapolis Center
08:59PM 40.9561 -96.4767 260° West 423 487 36,000  Level Minneapolis Center
09:00PM 40.9369 -96.6294 261° West 421 484 36,000  Level Minneapolis Center
09:01PM 40.9139 -96.7808 259° West 420 483 36,000  Level Minneapolis Center
09:02PM 40.8606 -96.9594 249° West 434 499 36,000  Level Minneapolis Center
09:03PM 40.8186 -97.1061 249° West 431 496 36,000  Level Minneapolis Center
09:04PM 40.7764 -97.2533 249° West 430 495 36,000  Level Minneapolis Center
09:05PM 40.7325 -97.4069 249° West 434 499 36,000  Level Minneapolis Center
09:06PM 40.6889 -97.5558 249° West 435 501 36,000  Level Minneapolis Center
09:07PM 40.6461 -97.7050 249° West 434 499 36,000  Level Minneapolis Center
09:08PM 40.6017 -97.8536 249° West 435 501 36,000  Level Minneapolis Center
09:09PM 40.5489 -98.0319 249° West 435 501 36,000  Level Minneapolis Center
09:10PM 40.5050 -98.1811 249° West 435 501 36,000  Level Minneapolis Center
09:11PM 40.4603 -98.3314 249° West 438 504 36,000  Level Minneapolis Center
09:12PM 40.4147 -98.4811 248° West 439 505 36,000  Level Minneapolis Center
09:13PM 40.3697 -98.6322 249° West 442 509 36,000  Level Minneapolis Center
09:14PM 40.3236 -98.7831 248° West 444 511 36,000  Level Minneapolis Center
09:15PM 40.2769 -98.9342 248° West 445 512 36,000  Level Minneapolis Center
09:16PM 40.2311 -99.0867 249° West 447 514 36,000  Level Minneapolis Center
09:17PM 40.2033 -99.1753 248° West 444 511 36,000  Level Denver Center
09:18PM 40.1564 -99.3250 248° West 443 510 36,000  Level Denver Center
09:19PM 40.1092 -99.4775 248° West 452 520 36,000  Level Denver Center
09:20PM 40.0617 -99.6269 247° West 447 514 36,000  Level Denver Center
09:21PM 40.0044 -99.8072 248° West 448 516 36,000  Level Denver Center
09:22PM 39.9575 -99.9569 248° West 447 514 36,000  Level Denver Center
09:23PM 39.9089 -100.1081 247° West 450 518 36,000  Level Denver Center
09:24PM 39.8603 -100.2586 247° West 450 518 36,000  Level Denver Center
09:25PM 39.8108 -100.4117 247° West 452 520 36,000  Level Denver Center
09:26PM 39.7492 -100.6014 247° West 446 513 36,000  Level Denver Center
09:27PM 39.7036 -100.7442 248° West 446 513 36,000  Level Denver Center
09:28PM 39.6492 -100.9078 247° West 442 509 36,000  Level Denver Center
09:29PM 39.6031 -101.0478 247° West 440 506 36,000  Level Denver Center
09:30PM 39.5478 -101.2142 247° West 446 513 36,000  Level Denver Center
09:31PM 39.5008 -101.3556 247° West 447 514 36,000  Level Denver Center
09:32PM 39.4608 -101.4725 246° West 446 513 36,000  Level Denver Center
09:33PM 39.4067 -101.6364 247° West 444 511 36,000  Level Denver Center
09:34PM 39.3400 -101.7933 241° Southwest 448 516 36,000  Level Denver Center
09:35PM 39.2664 -101.9408 237° Southwest 442 509 36,000  Level Denver Center
09:36PM 39.1836 -102.0536 227° Southwest 450 518 36,000  Level Denver Center
09:38PM 39.1175 -102.1469 228° Southwest 447 514 36,000  Level Denver Center
09:39PM 39.0239 -102.3067 233° Southwest 437 503 36,000  Level Denver Center
09:40PM 38.9558 -102.4564 240° Southwest 434 499 36,000  Level Denver Center
09:41PM 38.8986 -102.5839 240° Southwest 432 497 36,000  Level Denver Center
09:42PM 38.8311 -102.7303 239° Southwest 429 494 36,000  Level Denver Center
09:43PM 38.7783 -102.8450 239° Southwest 432 497 36,000  Level Denver Center
09:44PM 38.7047 -103.0050 240° Southwest 436 502 36,000  Level Denver Center
09:45PM 38.6422 -103.1411 240° Southwest 441 507 36,000  Level Denver Center
09:46PM 38.5792 -103.2758 239° Southwest 443 510 36,100  Climbing Denver Center
09:47PM 38.5147 -103.4147 239° Southwest 440 506 36,000 -60 Descending Denver Center
09:48PM 38.4500 -103.5522 239° Southwest 442 509 36,000  Level Denver Center
09:49PM 38.3894 -103.6817 239° Southwest 444 511 36,000  Level Denver Center
09:50PM 38.3192 -103.8308 239° Southwest 442 509 36,000  Level Denver Center
09:51PM 38.2594 -103.9567 239° Southwest 437 503 36,000  Level Denver Center
09:52PM 38.1900 -104.1025 239° Southwest 434 499 36,000  Level Denver Center
09:53PM 38.1297 -104.2286 239° Southwest 437 503 36,000  Level Denver Center
09:54PM 38.0694 -104.3542 239° Southwest 438 504 36,000  Level Denver Center
09:55PM 37.9975 -104.5022 238° Southwest 442 509 36,000  Level Denver Center
09:56PM 37.9253 -104.6497 238° Southwest 443 510 36,000  Level Denver Center
09:57PM 37.8650 -104.7756 239° Southwest 438 504 36,000  Level Denver Center
09:58PM 37.8036 -104.9000 238° Southwest 437 503 36,000  Level Denver Center
09:59PM 37.7308 -105.0475 238° Southwest 442 509 36,000  Level Denver Center
10:00PM 37.6578 -105.1944 238° Southwest 445 512 36,000  Level Denver Center
10:01PM 37.5950 -105.3219 238° Southwest 447 514 36,000  Level Denver Center
10:02PM 37.5267 -105.4606 238° Southwest 450 518 36,000  Level Denver Center
10:03PM 37.4517 -105.6094 238° Southwest 451 519 36,000  Level Denver Center
10:04PM 37.3969 -105.7156 237° Southwest 452 520 36,000  Level Denver Center
10:05PM 37.3194 -105.8917 241° Southwest 453 521 36,000  Level Denver Center
10:06PM 37.2711 -106.0289 246° West 450 518 36,000  Level Denver Center
10:07PM 37.2147 -106.1906 246° West 451 519 36,000  Level Denver Center
10:08PM 37.1644 -106.3286 245° Southwest 453 521 36,000  Level Denver Center
10:10PM 37.1147 -106.4664 246° West 453 521 36,000  Level Denver Center
10:11PM 37.0569 -106.6258 246° West 451 519 36,000  Level Denver Center
10:12PM 37.0144 -106.7400 245° Southwest 452 520 36,000  Level Denver Center
10:13PM 36.9450 -106.9231 245° Southwest 456 525 36,000  Level Denver Center
10:14PM 36.8953 -107.0617 246° West 457 526 36,000  Level Denver Center
10:15PM 36.8347 -107.2203 245° Southwest 453 521 36,000  Level Denver Center
10:16PM 36.7917 -107.3333 245° Southwest 452 520 36,000  Level Denver Center
10:17PM 36.7264 -107.5150 246° West 451 519 36,000  Level Denver Center
10:18PM 36.6739 -107.6503 244° Southwest 453 521 36,000  Level Denver Center
10:19PM 36.6061 -107.8308 245° Southwest 453 521 36,000  Level Denver Center
10:20PM 36.5544 -107.9681 245° Southwest 456 525 36,000  Level Denver Center
10:21PM 36.4919 -108.1275 244° Southwest 458 527 36,000  Level Denver Center
10:22PM 36.4394 -108.2672 245° Southwest 464 534 36,000  Level Denver Center
10:23PM 36.3769 -108.4289 244° Southwest 467 537 36,000  Level Denver Center
10:24PM 36.3247 -108.5656 245° Southwest 462 532 36,000  Level Denver Center
10:25PM 36.2622 -108.7261 244° Southwest 464 534 36,000  Level Denver Center
10:26PM 36.2100 -108.8633 245° Southwest 466 536 36,000  Level Denver Center
10:27PM 36.1461 -109.0236 244° Southwest 474 545 36,000  Level Denver Center
10:28PM 36.0903 -109.1589 243° Southwest 470 541 36,000  Level Denver Center
10:29PM 36.0256 -109.3194 244° Southwest 468 539 36,000  Level Denver Center
10:30PM 35.9708 -109.4567 244° Southwest 469 540 36,000  Level Denver Center
10:31PM 35.9067 -109.6150 243° Southwest 464 534 36,000  Level Denver Center
10:32PM 35.8522 -109.7494 243° Southwest 460 529 36,000  Level Denver Center
10:33PM 35.7975 -109.8842 243° Southwest 459 528 36,000  Level Denver Center
10:34PM 35.7344 -110.0419 244° Southwest 460 529 36,000  Level Denver Center
10:35PM 35.6828 -110.1667 243° Southwest 460 529 36,000  Level Denver Center
10:37PM 35.6133 -110.3347 243° Southwest 460 529 36,000  Level Denver Center
10:37PM 35.5683 -110.4422 243° Southwest 457 526 36,000  Level Los Angeles Center
10:38PM 35.5125 -110.5811 244° Southwest 457 526 36,000  Level Los Angeles Center
10:39PM 35.4539 -110.7203 243° Southwest 461 531 36,000  Level Los Angeles Center
10:40PM 35.3958 -110.8583 243° Southwest 459 528 36,000  Level Los Angeles Center
10:42PM 35.3250 -111.0286 243° Southwest 464 534 36,000  Level Los Angeles Center
10:43PM 35.2708 -111.1725 245° Southwest 467 537 36,000  Level Los Angeles Center
10:44PM 35.2342 -111.2911 249° West 466 536 36,100  Climbing Los Angeles Center
10:45PM 35.1778 -111.4669 249° West 465 535 36,000 -60 Descending Los Angeles Center
10:46PM 35.1317 -111.6133 249° West 464 534 36,000  Level Los Angeles Center
10:47PM 35.0847 -111.7603 249° West 466 536 36,000  Level Los Angeles Center
10:48PM 35.0378 -111.9072 249° West 466 536 36,000  Level Los Angeles Center
10:49PM 34.9811 -112.0808 248° West 468 539 36,000  Level Los Angeles Center
10:50PM 34.9339 -112.2292 249° West 470 541 36,000  Level Los Angeles Center
10:51PM 34.8853 -112.3761 248° West 470 541 36,100  Climbing Los Angeles Center
10:52PM 34.8369 -112.5222 248° West 467 537 36,000 -60 Descending Los Angeles Center
10:53PM 34.7792 -112.6981 248° West 466 536 36,000  Level Los Angeles Center
10:54PM 34.7250 -112.8706 249° West 460 529 36,000 -720 Level Albuquerque Center
10:55PM 34.6769 -113.0133 248° West 457 526 34,500 -1,020 Descending Albuquerque Center
10:56PM 34.6281 -113.1583 248° West 461 531 34,000 -300 Descending Albuquerque Center
10:57PM 34.5783 -113.3047 248° West 468 539 34,000  Level Albuquerque Center
10:58PM 34.5289 -113.4522 248° West 471 542 34,000  Level Albuquerque Center
10:59PM 34.4675 -113.6267 247° West 472 543 34,000  Level Albuquerque Center
11:00PM 34.4142 -113.7828 248° West 481 554 34,000  Level Albuquerque Center
11:01PM 34.3631 -113.9317 247° West 481 554 34,000  Level Albuquerque Center
11:02PM 34.3125 -114.0797 248° West 477 549 34,000  Level Albuquerque Center
11:03PM 34.2603 -114.2269 247° West 476 548 34,000 -360 Level Albuquerque Center
11:04PM 34.2097 -114.3750 248° West 475 547 33,300 -1,440 Descending Albuquerque Center
11:05PM 34.1633 -114.5128 248° West 478 550 31,100 -2,460 Descending Los Angeles Center
11:06PM 34.1106 -114.6592 247° West 477 549 28,400 -1,620 Descending Los Angeles Center
11:07PM 34.0525 -114.7983 243° Southwest 469 540 27,900 -300 Descending Los Angeles Center
11:08PM 33.9786 -114.9639 242° Southwest 466 536 27,900  Level Los Angeles Center
11:09PM 33.9181 -115.1003 242° Southwest 463 533 28,000  Climbing Los Angeles Center
11:11PM 33.8567 -115.2383 242° Southwest 468 539 28,000  Level Los Angeles Center
11:12PM 33.7953 -115.3733 241° Southwest 463 533 28,000  Level Los Angeles Center
11:13PM 33.7356 -115.5092 242° Southwest 462 532 28,000 -180 Level Los Angeles Center
11:14PM 33.6742 -115.6456 242° Southwest 465 535 27,700 -960 Descending Los Angeles Center
11:15PM 33.6119 -115.7789 241° Southwest 462 532 26,100 -1,920 Descending Los Angeles Center
11:16PM 33.5156 -115.9092 228° Southwest 443 510 23,800 -2,160 Descending Los Angeles Center
11:17PM 33.4250 -116.0031 221° Southwest 433 498 21,700 -2,100 Descending Los Angeles Center
11:18PM 33.3392 -116.0947 222° Southwest 421 484 19,600 -2,040 Descending Los Angeles Center
11:19PM 33.2553 -116.1828 221° Southwest 404 465 17,500 -1,800 Descending Los Angeles Center
11:20PM 33.1747 -116.2681 222° Southwest 393 452 16,000 -1,560 Descending Los Angeles Center
11:21PM 33.1164 -116.3283 221° Southwest 366 421 14,400 -1,800 Descending Los Angeles Center
11:22PM 33.0297 -116.4194 221° Southwest 333 383 12,400 -1,500 Descending Los Angeles Center
11:23PM 32.9522 -116.4739 211° Southwest 328 377 11,400 -960 Descending Los Angeles Center
11:24PM 32.8647 -116.5261 207° Southwest 324 373 10,300 -1,080 Descending Los Angeles Center
11:25PM 32.8042 -116.6153 231° Southwest 299 344 9,000 -1,200 Descending Los Angeles Center
11:26PM 32.7644 -116.6969 240° Southwest 289 333 7,900 -1,440 Descending Los Angeles Center
11:27PM 32.7181 -116.7942 240° Southwest 283 326 6,100 -1,200 Descending Los Angeles Center
11:28PM 32.6875 -116.8783 247° West 280 322 5,500 -780 Descending Los Angeles Center
11:29PM 32.6761 -116.9558 260° West 249 287 4,500 -1,080 Descending Los Angeles Center
11:30PM 32.7000 -117.0167 295° West 176 203 3,400 -1,260 Descending Southern California TRACON
11:31PM 32.7000 -117.0833 270° West 166 191 1,900 -1,380 Descending Southern California TRACON